Terminal Aerodrome Forecast
Issued by NWS Milwaukee/Sullivan, WI

Home | Current Version | Previous Version | Text Only | Print | Product List | Glossary On
Versions: 1 2 3 4 5 6 7 8 9 10 11 12 13 14 15 16 17 18 19 20 21 22 23 24 25
000
FTUS43 KMKX 230520
TAFMSN
TAF
KMSN 230520Z 2306/2406 21006KT P6SM VCTS SCT025CB OVC060
      TEMPO 2306/2307 5SM -TSRA BKN025CB
     FM230800 21005KT P6SM VCSH SCT025 BKN040
      TEMPO 2308/2310 BKN025
     FM231000 20005KT 5SM BR VCSH BKN025
     FM231500 VRB03KT 5SM -SHRA OVC010
     FM231900 11004KT 6SM -SHRA BR OVC010
     FM232300 03006KT 6SM -SHRA OVC035=

USA.gov is the U.S. government's official web portal to all federal, state and local government web resources and services.